sensor_id;sensor_type;location;lat;lon;timestamp;P1;durP1;ratioP1;P2;durP2;ratioP2
2940;SDS011;1480;51.456;6.670;2022-08-19T00:00:27;6.63;;;6.03;;
2940;SDS011;1480;51.456;6.670;2022-08-19T00:02:56;7.00;;;5.63;;
2940;SDS011;1480;51.456;6.670;2022-08-19T00:05:23;7.50;;;6.70;;
2940;SDS011;1480;51.456;6.670;2022-08-19T00:07:50;7.17;;;6.30;;
2940;SDS011;1480;51.456;6.670;2022-08-19T00:10:18;6.40;;;5.77;;
2940;SDS011;1480;51.456;6.670;2022-08-19T00:12:46;6.37;;;5.73;;
2940;SDS011;1480;51.456;6.670;2022-08-19T00:15:14;6.37;;;5.77;;
2940;SDS011;1480;51.456;6.670;2022-08-19T00:17:43;7.30;;;6.03;;
2940;SDS011;1480;51.456;6.670;2022-08-19T00:20:13;6.80;;;5.67;;
2940;SDS011;1480;51.456;6.670;2022-08-19T00:22:43;6.73;;;6.10;;
2940;SDS011;1480;51.456;6.670;2022-08-19T00:25:10;6.30;;;5.70;;
2940;SDS011;1480;51.456;6.670;2022-08-19T00:27:37;6.17;;;5.57;;
2940;SDS011;1480;51.456;6.670;2022-08-19T00:30:05;7.00;;;6.20;;
2940;SDS011;1480;51.456;6.670;2022-08-19T00:32:35;6.83;;;6.10;;
2940;SDS011;1480;51.456;6.670;2022-08-19T00:35:02;7.03;;;5.83;;
2940;SDS011;1480;51.456;6.670;2022-08-19T00:37:31;7.30;;;5.97;;
2940;SDS011;1480;51.456;6.670;2022-08-19T00:40:00;6.40;;;5.80;;
2940;SDS011;1480;51.456;6.670;2022-08-19T00:42:28;7.20;;;6.50;;
2940;SDS011;1480;51.456;6.670;2022-08-19T00:44:55;6.67;;;6.07;;
2940;SDS011;1480;51.456;6.670;2022-08-19T00:47:22;7.83;;;7.03;;
2940;SDS011;1480;51.456;6.670;2022-08-19T00:49:51;10.93;;;6.13;;
2940;SDS011;1480;51.456;6.670;2022-08-19T00:52:22;7.93;;;7.13;;
2940;SDS011;1480;51.456;6.670;2022-08-19T00:54:53;8.13;;;7.10;;
2940;SDS011;1480;51.456;6.670;2022-08-19T00:57:22;8.03;;;7.23;;
2940;SDS011;1480;51.456;6.670;2022-08-19T00:59:54;7.13;;;6.30;;
2940;SDS011;1480;51.456;6.670;2022-08-19T01:02:22;7.60;;;6.90;;
2940;SDS011;1480;51.456;6.670;2022-08-19T01:04:50;8.27;;;7.40;;
2940;SDS011;1480;51.456;6.670;2022-08-19T01:07:17;8.63;;;7.80;;
2940;SDS011;1480;51.456;6.670;2022-08-19T01:09:44;12.13;;;7.67;;
2940;SDS011;1480;51.456;6.670;2022-08-19T01:12:13;7.87;;;7.00;;
2940;SDS011;1480;51.456;6.670;2022-08-19T01:14:40;9.67;;;8.37;;
2940;SDS011;1480;51.456;6.670;2022-08-19T01:17:09;9.77;;;8.87;;
2940;SDS011;1480;51.456;6.670;2022-08-19T01:19:37;10.07;;;8.40;;
2940;SDS011;1480;51.456;6.670;2022-08-19T01:22:08;9.10;;;8.20;;
2940;SDS011;1480;51.456;6.670;2022-08-19T01:24:40;9.77;;;8.87;;
2940;SDS011;1480;51.456;6.670;2022-08-19T01:27:08;8.27;;;7.50;;
2940;SDS011;1480;51.456;6.670;2022-08-19T01:29:36;10.60;;;9.60;;
2940;SDS011;1480;51.456;6.670;2022-08-19T01:32:05;10.87;;;9.77;;
2940;SDS011;1480;51.456;6.670;2022-08-19T01:34:33;9.80;;;8.80;;
2940;SDS011;1480;51.456;6.670;2022-08-19T01:37:01;10.87;;;9.83;;
2940;SDS011;1480;51.456;6.670;2022-08-19T01:39:33;11.63;;;10.57;;
2940;SDS011;1480;51.456;6.670;2022-08-19T01:42:01;10.53;;;9.53;;
2940;SDS011;1480;51.456;6.670;2022-08-19T01:44:29;11.90;;;8.63;;
2940;SDS011;1480;51.456;6.670;2022-08-19T01:46:56;11.10;;;10.10;;
2940;SDS011;1480;51.456;6.670;2022-08-19T01:49:23;10.20;;;9.27;;
2940;SDS011;1480;51.456;6.670;2022-08-19T01:51:52;11.20;;;10.20;;
2940;SDS011;1480;51.456;6.670;2022-08-19T01:54:20;10.47;;;9.43;;
2940;SDS011;1480;51.456;6.670;2022-08-19T01:56:48;11.60;;;10.47;;
2940;SDS011;1480;51.456;6.670;2022-08-19T01:59:19;10.10;;;9.07;;
2940;SDS011;1480;51.456;6.670;2022-08-19T02:01:48;10.13;;;8.93;;
2940;SDS011;1480;51.456;6.670;2022-08-19T02:04:14;9.70;;;8.77;;
2940;SDS011;1480;51.456;6.670;2022-08-19T02:06:42;11.50;;;8.53;;
2940;SDS011;1480;51.456;6.670;2022-08-19T02:09:09;8.00;;;7.20;;
2940;SDS011;1480;51.456;6.670;2022-08-19T02:11:36;9.43;;;7.90;;
2940;SDS011;1480;51.456;6.670;2022-08-19T02:14:04;10.47;;;9.37;;
2940;SDS011;1480;51.456;6.670;2022-08-19T02:16:34;12.40;;;10.57;;
2940;SDS011;1480;51.456;6.670;2022-08-19T02:19:02;14.13;;;11.90;;
2940;SDS011;1480;51.456;6.670;2022-08-19T02:21:31;13.67;;;12.30;;
2940;SDS011;1480;51.456;6.670;2022-08-19T02:23:58;13.17;;;11.97;;
2940;SDS011;1480;51.456;6.670;2022-08-19T02:26:26;12.27;;;11.17;;
2940;SDS011;1480;51.456;6.670;2022-08-19T02:28:53;11.50;;;10.50;;
2940;SDS011;1480;51.456;6.670;2022-08-19T02:31:21;10.40;;;9.50;;
2940;SDS011;1480;51.456;6.670;2022-08-19T02:33:51;12.23;;;11.10;;
2940;SDS011;1480;51.456;6.670;2022-08-19T02:36:18;11.33;;;10.33;;
2940;SDS011;1480;51.456;6.670;2022-08-19T02:38:45;10.30;;;9.07;;
2940;SDS011;1480;51.456;6.670;2022-08-19T02:41:13;10.43;;;9.50;;
2940;SDS011;1480;51.456;6.670;2022-08-19T02:43:42;9.93;;;8.97;;
2940;SDS011;1480;51.456;6.670;2022-08-19T02:46:13;10.87;;;9.83;;
2940;SDS011;1480;51.456;6.670;2022-08-19T02:48:46;10.30;;;9.30;;
2940;SDS011;1480;51.456;6.670;2022-08-19T02:51:19;10.63;;;9.23;;
2940;SDS011;1480;51.456;6.670;2022-08-19T02:53:47;12.20;;;9.53;;
2940;SDS011;1480;51.456;6.670;2022-08-19T02:56:14;10.37;;;9.40;;
2940;SDS011;1480;51.456;6.670;2022-08-19T02:58:42;11.10;;;10.00;;
2940;SDS011;1480;51.456;6.670;2022-08-19T03:01:10;10.37;;;9.27;;
2940;SDS011;1480;51.456;6.670;2022-08-19T03:03:37;12.30;;;11.00;;
2940;SDS011;1480;51.456;6.670;2022-08-19T03:06:05;11.30;;;10.23;;
2940;SDS011;1480;51.456;6.670;2022-08-19T03:08:36;10.97;;;9.97;;
2940;SDS011;1480;51.456;6.670;2022-08-19T03:11:03;12.00;;;10.97;;
2940;SDS011;1480;51.456;6.670;2022-08-19T03:13:31;10.97;;;9.97;;
2940;SDS011;1480;51.456;6.670;2022-08-19T03:15:58;11.73;;;10.73;;
2940;SDS011;1480;51.456;6.670;2022-08-19T03:18:25;11.90;;;10.80;;
2940;SDS011;1480;51.456;6.670;2022-08-19T03:20:52;12.60;;;11.40;;
2940;SDS011;1480;51.456;6.670;2022-08-19T03:23:20;11.83;;;10.50;;
2940;SDS011;1480;51.456;6.670;2022-08-19T03:25:50;11.20;;;9.43;;
2940;SDS011;1480;51.456;6.670;2022-08-19T03:28:19;11.43;;;10.30;;
2940;SDS011;1480;51.456;6.670;2022-08-19T03:30:56;16.00;;;11.00;;
2940;SDS011;1480;51.456;6.670;2022-08-19T03:33:25;11.40;;;10.20;;
2940;SDS011;1480;51.456;6.670;2022-08-19T03:35:59;11.17;;;10.07;;
2940;SDS011;1480;51.456;6.670;2022-08-19T03:38:32;11.60;;;10.50;;
2940;SDS011;1480;51.456;6.670;2022-08-19T03:41:03;11.17;;;9.60;;
2940;SDS011;1480;51.456;6.670;2022-08-19T03:43:33;12.77;;;11.57;;
2940;SDS011;1480;51.456;6.670;2022-08-19T03:46:02;14.10;;;12.17;;
2940;SDS011;1480;51.456;6.670;2022-08-19T03:48:30;13.03;;;11.73;;
2940;SDS011;1480;51.456;6.670;2022-08-19T03:50:57;12.87;;;11.50;;
2940;SDS011;1480;51.456;6.670;2022-08-19T03:53:25;13.53;;;12.23;;
2940;SDS011;1480;51.456;6.670;2022-08-19T03:55:52;13.50;;;12.10;;
2940;SDS011;1480;51.456;6.670;2022-08-19T03:58:21;12.30;;;11.10;;
2940;SDS011;1480;51.456;6.670;2022-08-19T04:00:48;14.47;;;12.97;;
2940;SDS011;1480;51.456;6.670;2022-08-19T04:03:15;14.10;;;12.70;;
2940;SDS011;1480;51.456;6.670;2022-08-19T04:05:44;22.07;;;19.70;;
2940;SDS011;1480;51.456;6.670;2022-08-19T04:08:11;19.70;;;17.80;;
2940;SDS011;1480;51.456;6.670;2022-08-19T04:10:44;20.43;;;17.97;;
2940;SDS011;1480;51.456;6.670;2022-08-19T04:13:11;20.30;;;18.20;;
2940;SDS011;1480;51.456;6.670;2022-08-19T04:15:40;20.10;;;18.07;;
2940;SDS011;1480;51.456;6.670;2022-08-19T04:18:08;23.03;;;20.63;;
2940;SDS011;1480;51.456;6.670;2022-08-19T04:20:40;21.80;;;19.67;;
2940;SDS011;1480;51.456;6.670;2022-08-19T04:23:07;19.53;;;17.47;;
2940;SDS011;1480;51.456;6.670;2022-08-19T04:25:35;20.17;;;17.97;;
2940;SDS011;1480;51.456;6.670;2022-08-19T04:28:04;21.40;;;19.20;;
2940;SDS011;1480;51.456;6.670;2022-08-19T04:30:36;21.67;;;19.67;;
2940;SDS011;1480;51.456;6.670;2022-08-19T04:33:05;20.07;;;18.10;;
2940;SDS011;1480;51.456;6.670;2022-08-19T04:35:37;19.77;;;17.77;;
2940;SDS011;1480;51.456;6.670;2022-08-19T04:38:05;18.50;;;16.60;;
2940;SDS011;1480;51.456;6.670;2022-08-19T04:40:32;19.07;;;17.17;;
2940;SDS011;1480;51.456;6.670;2022-08-19T04:43:18;20.33;;;17.90;;
2940;SDS011;1480;51.456;6.670;2022-08-19T04:45:45;20.57;;;18.50;;
2940;SDS011;1480;51.456;6.670;2022-08-19T04:48:14;21.70;;;19.47;;
2940;SDS011;1480;51.456;6.670;2022-08-19T04:50:42;26.47;;;21.10;;
2940;SDS011;1480;51.456;6.670;2022-08-19T04:53:09;21.40;;;19.20;;
2940;SDS011;1480;51.456;6.670;2022-08-19T04:55:40;20.30;;;18.40;;
2940;SDS011;1480;51.456;6.670;2022-08-19T04:58:08;24.37;;;21.53;;
2940;SDS011;1480;51.456;6.670;2022-08-19T05:00:37;22.50;;;20.30;;
2940;SDS011;1480;51.456;6.670;2022-08-19T05:03:04;22.37;;;18.67;;
2940;SDS011;1480;51.456;6.670;2022-08-19T05:05:33;20.10;;;18.00;;
2940;SDS011;1480;51.456;6.670;2022-08-19T05:08:05;23.53;;;20.23;;
2940;SDS011;1480;51.456;6.670;2022-08-19T05:10:34;25.30;;;22.87;;
2940;SDS011;1480;51.456;6.670;2022-08-19T05:13:01;28.67;;;25.77;;
2940;SDS011;1480;51.456;6.670;2022-08-19T05:15:29;25.37;;;22.67;;
2940;SDS011;1480;51.456;6.670;2022-08-19T05:17:56;21.60;;;19.43;;
2940;SDS011;1480;51.456;6.670;2022-08-19T05:20:50;25.00;;;21.67;;
2940;SDS011;1480;51.456;6.670;2022-08-19T05:23:35;22.20;;;20.10;;
2940;SDS011;1480;51.456;6.670;2022-08-19T05:26:02;22.10;;;19.77;;
2940;SDS011;1480;51.456;6.670;2022-08-19T05:28:29;22.87;;;20.70;;
2940;SDS011;1480;51.456;6.670;2022-08-19T05:30:56;23.13;;;20.70;;
2940;SDS011;1480;51.456;6.670;2022-08-19T05:33:23;25.23;;;22.67;;
2940;SDS011;1480;51.456;6.670;2022-08-19T05:35:51;27.40;;;23.37;;
2940;SDS011;1480;51.456;6.670;2022-08-19T05:38:19;26.33;;;22.73;;
2940;SDS011;1480;51.456;6.670;2022-08-19T05:40:46;27.90;;;25.10;;
2940;SDS011;1480;51.456;6.670;2022-08-19T05:43:14;24.70;;;22.30;;
2940;SDS011;1480;51.456;6.670;2022-08-19T05:45:42;25.63;;;23.20;;
2940;SDS011;1480;51.456;6.670;2022-08-19T05:48:10;28.50;;;25.80;;
2940;SDS011;1480;51.456;6.670;2022-08-19T05:50:37;31.83;;;25.07;;
2940;SDS011;1480;51.456;6.670;2022-08-19T05:53:06;27.57;;;24.43;;
2940;SDS011;1480;51.456;6.670;2022-08-19T05:55:34;32.60;;;29.27;;
2940;SDS011;1480;51.456;6.670;2022-08-19T05:58:03;28.53;;;25.73;;
2940;SDS011;1480;51.456;6.670;2022-08-19T06:00:32;36.57;;;29.83;;
2940;SDS011;1480;51.456;6.670;2022-08-19T06:03:00;38.60;;;34.40;;
2940;SDS011;1480;51.456;6.670;2022-08-19T06:05:28;33.30;;;29.80;;
2940;SDS011;1480;51.456;6.670;2022-08-19T06:07:55;34.77;;;31.17;;
2940;SDS011;1480;51.456;6.670;2022-08-19T06:10:25;35.47;;;31.83;;
2940;SDS011;1480;51.456;6.670;2022-08-19T06:12:52;36.80;;;33.07;;
2940;SDS011;1480;51.456;6.670;2022-08-19T06:15:19;33.77;;;30.27;;
2940;SDS011;1480;51.456;6.670;2022-08-19T06:17:48;36.97;;;33.23;;
2940;SDS011;1480;51.456;6.670;2022-08-19T06:20:15;37.63;;;33.73;;
2940;SDS011;1480;51.456;6.670;2022-08-19T06:22:43;37.80;;;34.10;;
2940;SDS011;1480;51.456;6.670;2022-08-19T06:25:12;33.80;;;30.60;;
2940;SDS011;1480;51.456;6.670;2022-08-19T06:27:42;33.40;;;30.10;;
2940;SDS011;1480;51.456;6.670;2022-08-19T06:30:10;41.10;;;37.00;;
2940;SDS011;1480;51.456;6.670;2022-08-19T06:32:37;38.00;;;34.00;;
2940;SDS011;1480;51.456;6.670;2022-08-19T06:35:05;40.47;;;36.27;;
2940;SDS011;1480;51.456;6.670;2022-08-19T06:37:33;37.97;;;34.13;;
2940;SDS011;1480;51.456;6.670;2022-08-19T06:40:00;35.47;;;31.70;;
2940;SDS011;1480;51.456;6.670;2022-08-19T06:42:27;34.67;;;31.30;;
2940;SDS011;1480;51.456;6.670;2022-08-19T06:44:56;39.67;;;35.57;;
2940;SDS011;1480;51.456;6.670;2022-08-19T06:47:23;44.97;;;40.40;;
2940;SDS011;1480;51.456;6.670;2022-08-19T06:49:52;41.70;;;37.40;;
2940;SDS011;1480;51.456;6.670;2022-08-19T06:52:25;41.50;;;37.43;;
2940;SDS011;1480;51.456;6.670;2022-08-19T06:54:52;38.03;;;34.20;;
2940;SDS011;1480;51.456;6.670;2022-08-19T06:57:21;42.00;;;35.40;;
2940;SDS011;1480;51.456;6.670;2022-08-19T06:59:48;41.40;;;36.53;;
2940;SDS011;1480;51.456;6.670;2022-08-19T07:02:17;43.47;;;39.00;;
2940;SDS011;1480;51.456;6.670;2022-08-19T07:04:45;42.73;;;38.50;;
2940;SDS011;1480;51.456;6.670;2022-08-19T07:07:13;40.77;;;36.40;;
2940;SDS011;1480;51.456;6.670;2022-08-19T07:09:41;37.70;;;34.17;;
2940;SDS011;1480;51.456;6.670;2022-08-19T07:12:11;44.97;;;40.07;;
2940;SDS011;1480;51.456;6.670;2022-08-19T07:14:40;46.10;;;38.47;;
2940;SDS011;1480;51.456;6.670;2022-08-19T07:17:08;45.60;;;39.27;;
2940;SDS011;1480;51.456;6.670;2022-08-19T07:19:38;38.90;;;34.20;;
2940;SDS011;1480;51.456;6.670;2022-08-19T07:22:06;39.77;;;33.90;;
2940;SDS011;1480;51.456;6.670;2022-08-19T07:24:34;33.13;;;29.73;;
2940;SDS011;1480;51.456;6.670;2022-08-19T07:27:03;35.03;;;31.63;;
2940;SDS011;1480;51.456;6.670;2022-08-19T07:29:32;34.20;;;30.60;;
2940;SDS011;1480;51.456;6.670;2022-08-19T07:32:01;30.90;;;27.80;;
2940;SDS011;1480;51.456;6.670;2022-08-19T07:34:30;30.43;;;26.77;;
2940;SDS011;1480;51.456;6.670;2022-08-19T07:37:00;25.77;;;23.07;;
2940;SDS011;1480;51.456;6.670;2022-08-19T07:39:30;30.47;;;27.20;;
2940;SDS011;1480;51.456;6.670;2022-08-19T07:41:58;34.83;;;27.27;;
2940;SDS011;1480;51.456;6.670;2022-08-19T07:44:27;27.83;;;22.17;;
2940;SDS011;1480;51.456;6.670;2022-08-19T07:46:55;27.57;;;22.97;;
2940;SDS011;1480;51.456;6.670;2022-08-19T07:49:25;31.10;;;24.87;;
2940;SDS011;1480;51.456;6.670;2022-08-19T07:51:53;30.00;;;22.70;;
2940;SDS011;1480;51.456;6.670;2022-08-19T07:54:24;22.83;;;20.53;;
2940;SDS011;1480;51.456;6.670;2022-08-19T07:56:52;25.70;;;22.90;;
2940;SDS011;1480;51.456;6.670;2022-08-19T07:59:19;24.30;;;21.70;;
2940;SDS011;1480;51.456;6.670;2022-08-19T08:01:47;21.47;;;19.17;;
2940;SDS011;1480;51.456;6.670;2022-08-19T08:04:15;22.70;;;19.03;;
2940;SDS011;1480;51.456;6.670;2022-08-19T08:07:01;25.33;;;20.10;;
2940;SDS011;1480;51.456;6.670;2022-08-19T08:09:47;23.10;;;20.60;;
2940;SDS011;1480;51.456;6.670;2022-08-19T08:12:15;22.97;;;17.97;;
2940;SDS011;1480;51.456;6.670;2022-08-19T08:14:45;29.40;;;22.87;;
2940;SDS011;1480;51.456;6.670;2022-08-19T08:17:14;26.37;;;22.00;;
2940;SDS011;1480;51.456;6.670;2022-08-19T08:19:43;24.60;;;21.20;;
2940;SDS011;1480;51.456;6.670;2022-08-19T08:22:11;31.97;;;25.37;;
2940;SDS011;1480;51.456;6.670;2022-08-19T08:25:04;27.53;;;22.70;;
2940;SDS011;1480;51.456;6.670;2022-08-19T08:27:35;29.47;;;23.20;;
2940;SDS011;1480;51.456;6.670;2022-08-19T08:30:05;26.60;;;22.97;;
2940;SDS011;1480;51.456;6.670;2022-08-19T08:32:34;30.93;;;25.60;;
2940;SDS011;1480;51.456;6.670;2022-08-19T08:35:01;26.60;;;23.67;;
2940;SDS011;1480;51.456;6.670;2022-08-19T08:37:29;26.27;;;22.47;;
2940;SDS011;1480;51.456;6.670;2022-08-19T08:39:56;31.47;;;23.50;;
2940;SDS011;1480;51.456;6.670;2022-08-19T08:42:25;27.33;;;22.27;;
2940;SDS011;1480;51.456;6.670;2022-08-19T08:44:58;23.07;;;18.50;;
2940;SDS011;1480;51.456;6.670;2022-08-19T08:47:26;21.10;;;17.77;;
2940;SDS011;1480;51.456;6.670;2022-08-19T08:50:03;20.27;;;18.17;;
2940;SDS011;1480;51.456;6.670;2022-08-19T08:52:33;21.20;;;17.90;;
2940;SDS011;1480;51.456;6.670;2022-08-19T08:55:03;23.73;;;20.87;;
2940;SDS011;1480;51.456;6.670;2022-08-19T08:57:35;22.77;;;20.27;;
2940;SDS011;1480;51.456;6.670;2022-08-19T09:00:06;29.90;;;26.70;;
2940;SDS011;1480;51.456;6.670;2022-08-19T09:02:36;29.83;;;26.73;;
2940;SDS011;1480;51.456;6.670;2022-08-19T09:05:04;24.33;;;21.70;;
2940;SDS011;1480;51.456;6.670;2022-08-19T09:07:34;26.10;;;23.30;;
2940;SDS011;1480;51.456;6.670;2022-08-19T09:10:14;21.93;;;19.47;;
2940;SDS011;1480;51.456;6.670;2022-08-19T09:12:52;24.30;;;21.67;;
2940;SDS011;1480;51.456;6.670;2022-08-19T09:15:28;24.80;;;18.60;;
2940;SDS011;1480;51.456;6.670;2022-08-19T09:17:59;20.77;;;18.57;;
2940;SDS011;1480;51.456;6.670;2022-08-19T09:20:28;20.97;;;18.47;;
2940;SDS011;1480;51.456;6.670;2022-08-19T09:22:56;19.47;;;17.47;;
2940;SDS011;1480;51.456;6.670;2022-08-19T09:25:23;22.40;;;19.07;;
2940;SDS011;1480;51.456;6.670;2022-08-19T09:27:52;24.80;;;21.43;;
2940;SDS011;1480;51.456;6.670;2022-08-19T09:30:23;22.33;;;19.93;;
2940;SDS011;1480;51.456;6.670;2022-08-19T09:32:52;28.30;;;20.77;;
2940;SDS011;1480;51.456;6.670;2022-08-19T09:35:20;23.30;;;20.10;;
2940;SDS011;1480;51.456;6.670;2022-08-19T09:37:48;21.50;;;19.10;;
2940;SDS011;1480;51.456;6.670;2022-08-19T09:40:16;21.60;;;19.03;;
2940;SDS011;1480;51.456;6.670;2022-08-19T09:42:44;20.80;;;18.57;;
2940;SDS011;1480;51.456;6.670;2022-08-19T09:45:13;17.03;;;14.53;;
2940;SDS011;1480;51.456;6.670;2022-08-19T09:47:41;19.67;;;17.77;;
2940;SDS011;1480;51.456;6.670;2022-08-19T09:50:09;21.10;;;18.90;;
2940;SDS011;1480;51.456;6.670;2022-08-19T09:52:37;24.93;;;20.90;;
2940;SDS011;1480;51.456;6.670;2022-08-19T09:55:05;21.87;;;18.53;;
2940;SDS011;1480;51.456;6.670;2022-08-19T09:57:33;20.73;;;17.60;;
2940;SDS011;1480;51.456;6.670;2022-08-19T10:00:01;23.70;;;19.40;;
2940;SDS011;1480;51.456;6.670;2022-08-19T10:02:34;21.80;;;18.67;;
2940;SDS011;1480;51.456;6.670;2022-08-19T10:05:02;22.60;;;17.93;;
2940;SDS011;1480;51.456;6.670;2022-08-19T10:07:48;16.80;;;15.10;;
2940;SDS011;1480;51.456;6.670;2022-08-19T10:10:16;17.40;;;15.53;;
2940;SDS011;1480;51.456;6.670;2022-08-19T10:12:43;21.30;;;16.47;;
2940;SDS011;1480;51.456;6.670;2022-08-19T10:15:13;18.37;;;16.07;;
2940;SDS011;1480;51.456;6.670;2022-08-19T10:17:41;18.47;;;16.67;;
2940;SDS011;1480;51.456;6.670;2022-08-19T10:20:09;18.87;;;16.93;;
2940;SDS011;1480;51.456;6.670;2022-08-19T10:22:36;17.33;;;15.27;;
2940;SDS011;1480;51.456;6.670;2022-08-19T10:25:04;18.53;;;16.53;;
2940;SDS011;1480;51.456;6.670;2022-08-19T10:27:32;15.03;;;12.90;;
2940;SDS011;1480;51.456;6.670;2022-08-19T10:29:59;19.57;;;15.50;;
2940;SDS011;1480;51.456;6.670;2022-08-19T10:32:26;16.60;;;14.40;;
2940;SDS011;1480;51.456;6.670;2022-08-19T10:34:56;20.90;;;12.90;;
2940;SDS011;1480;51.456;6.670;2022-08-19T10:37:23;20.93;;;13.57;;
2940;SDS011;1480;51.456;6.670;2022-08-19T10:39:50;17.00;;;12.80;;
2940;SDS011;1480;51.456;6.670;2022-08-19T10:42:17;15.50;;;13.27;;
2940;SDS011;1480;51.456;6.670;2022-08-19T10:44:44;13.17;;;10.93;;
2940;SDS011;1480;51.456;6.670;2022-08-19T10:47:13;12.30;;;11.07;;
2940;SDS011;1480;51.456;6.670;2022-08-19T10:49:40;15.70;;;14.00;;
2940;SDS011;1480;51.456;6.670;2022-08-19T10:52:23;14.70;;;12.40;;
2940;SDS011;1480;51.456;6.670;2022-08-19T10:55:02;17.57;;;12.17;;
2940;SDS011;1480;51.456;6.670;2022-08-19T10:57:48;13.03;;;11.07;;
2940;SDS011;1480;51.456;6.670;2022-08-19T11:00:17;15.30;;;13.03;;
2940;SDS011;1480;51.456;6.670;2022-08-19T11:02:44;14.90;;;11.77;;
2940;SDS011;1480;51.456;6.670;2022-08-19T11:05:11;13.47;;;11.83;;
2940;SDS011;1480;51.456;6.670;2022-08-19T11:07:41;10.87;;;9.27;;
2940;SDS011;1480;51.456;6.670;2022-08-19T11:10:10;12.83;;;11.10;;
2940;SDS011;1480;51.456;6.670;2022-08-19T11:12:39;14.77;;;11.40;;
2940;SDS011;1480;51.456;6.670;2022-08-19T11:15:07;9.70;;;8.40;;
2940;SDS011;1480;51.456;6.670;2022-08-19T11:17:36;9.43;;;8.43;;
2940;SDS011;1480;51.456;6.670;2022-08-19T11:20:06;13.43;;;12.20;;
2940;SDS011;1480;51.456;6.670;2022-08-19T11:22:34;10.60;;;8.70;;
2940;SDS011;1480;51.456;6.670;2022-08-19T11:25:03;10.37;;;7.67;;
2940;SDS011;1480;51.456;6.670;2022-08-19T11:27:30;10.43;;;9.33;;
2940;SDS011;1480;51.456;6.670;2022-08-19T11:29:58;9.83;;;8.73;;
2940;SDS011;1480;51.456;6.670;2022-08-19T11:32:25;8.80;;;7.93;;
2940;SDS011;1480;51.456;6.670;2022-08-19T11:34:52;12.87;;;9.50;;
2940;SDS011;1480;51.456;6.670;2022-08-19T11:37:19;14.70;;;9.90;;
2940;SDS011;1480;51.456;6.670;2022-08-19T11:39:46;12.80;;;8.70;;
2940;SDS011;1480;51.456;6.670;2022-08-19T11:42:14;11.40;;;9.03;;
2940;SDS011;1480;51.456;6.670;2022-08-19T11:45:00;10.67;;;8.10;;
2940;SDS011;1480;51.456;6.670;2022-08-19T11:47:28;12.70;;;10.00;;
2940;SDS011;1480;51.456;6.670;2022-08-19T11:49:55;10.37;;;9.27;;
2940;SDS011;1480;51.456;6.670;2022-08-19T11:52:22;10.50;;;8.60;;
2940;SDS011;1480;51.456;6.670;2022-08-19T11:54:50;7.40;;;6.57;;
2940;SDS011;1480;51.456;6.670;2022-08-19T11:57:18;10.07;;;9.07;;
2940;SDS011;1480;51.456;6.670;2022-08-19T11:59:49;8.80;;;7.40;;
2940;SDS011;1480;51.456;6.670;2022-08-19T12:02:17;10.47;;;6.53;;
2940;SDS011;1480;51.456;6.670;2022-08-19T12:04:44;10.00;;;7.40;;
2940;SDS011;1480;51.456;6.670;2022-08-19T12:07:12;9.40;;;7.63;;
2940;SDS011;1480;51.456;6.670;2022-08-19T12:09:39;7.40;;;6.03;;
2940;SDS011;1480;51.456;6.670;2022-08-19T12:12:06;10.00;;;6.70;;
2940;SDS011;1480;51.456;6.670;2022-08-19T12:14:35;12.33;;;7.40;;
2940;SDS011;1480;51.456;6.670;2022-08-19T12:17:02;8.97;;;5.60;;
2940;SDS011;1480;51.456;6.670;2022-08-19T12:19:32;8.27;;;5.60;;
2940;SDS011;1480;51.456;6.670;2022-08-19T12:22:00;6.40;;;5.80;;
2940;SDS011;1480;51.456;6.670;2022-08-19T12:24:29;5.10;;;4.60;;
2940;SDS011;1480;51.456;6.670;2022-08-19T12:26:57;8.20;;;5.67;;
2940;SDS011;1480;51.456;6.670;2022-08-19T12:29:26;7.30;;;4.73;;
2940;SDS011;1480;51.456;6.670;2022-08-19T12:31:56;7.73;;;4.70;;
2940;SDS011;1480;51.456;6.670;2022-08-19T12:34:26;7.50;;;5.70;;
2940;SDS011;1480;51.456;6.670;2022-08-19T12:36:56;6.40;;;4.57;;
2940;SDS011;1480;51.456;6.670;2022-08-19T12:39:23;6.00;;;4.80;;
2940;SDS011;1480;51.456;6.670;2022-08-19T12:41:51;5.50;;;4.10;;
2940;SDS011;1480;51.456;6.670;2022-08-19T12:44:18;5.40;;;4.23;;
2940;SDS011;1480;51.456;6.670;2022-08-19T12:46:46;7.00;;;4.87;;
2940;SDS011;1480;51.456;6.670;2022-08-19T12:49:15;6.27;;;5.10;;
2940;SDS011;1480;51.456;6.670;2022-08-19T12:51:42;10.23;;;5.37;;
2940;SDS011;1480;51.456;6.670;2022-08-19T12:54:09;6.17;;;4.17;;
2940;SDS011;1480;51.456;6.670;2022-08-19T12:56:36;7.30;;;5.73;;
2940;SDS011;1480;51.456;6.670;2022-08-19T12:59:03;9.20;;;5.63;;
2940;SDS011;1480;51.456;6.670;2022-08-19T13:01:32;10.80;;;6.80;;
2940;SDS011;1480;51.456;6.670;2022-08-19T13:03:59;9.03;;;5.13;;
2940;SDS011;1480;51.456;6.670;2022-08-19T13:06:27;5.03;;;4.20;;
2940;SDS011;1480;51.456;6.670;2022-08-19T13:08:55;8.57;;;4.93;;
2940;SDS011;1480;51.456;6.670;2022-08-19T13:11:23;7.03;;;5.57;;
2940;SDS011;1480;51.456;6.670;2022-08-19T13:13:50;6.10;;;5.17;;
2940;SDS011;1480;51.456;6.670;2022-08-19T13:16:20;7.03;;;5.37;;
2940;SDS011;1480;51.456;6.670;2022-08-19T13:18:47;6.77;;;5.10;;
2940;SDS011;1480;51.456;6.670;2022-08-19T13:21:15;6.93;;;5.80;;
2940;SDS011;1480;51.456;6.670;2022-08-19T13:23:44;6.00;;;5.40;;
2940;SDS011;1480;51.456;6.670;2022-08-19T13:26:13;7.10;;;5.03;;
2940;SDS011;1480;51.456;6.670;2022-08-19T13:28:41;5.80;;;5.20;;
2940;SDS011;1480;51.456;6.670;2022-08-19T13:31:27;4.77;;;4.37;;
2940;SDS011;1480;51.456;6.670;2022-08-19T13:34:13;5.03;;;4.53;;
2940;SDS011;1480;51.456;6.670;2022-08-19T13:36:40;5.87;;;5.13;;
2940;SDS011;1480;51.456;6.670;2022-08-19T13:39:08;7.97;;;5.00;;
2940;SDS011;1480;51.456;6.670;2022-08-19T13:41:36;11.03;;;6.27;;
2940;SDS011;1480;51.456;6.670;2022-08-19T13:44:09;6.80;;;4.80;;
2940;SDS011;1480;51.456;6.670;2022-08-19T13:46:36;7.10;;;6.40;;
2940;SDS011;1480;51.456;6.670;2022-08-19T13:49:03;7.40;;;5.97;;
2940;SDS011;1480;51.456;6.670;2022-08-19T13:51:30;7.20;;;6.40;;
2940;SDS011;1480;51.456;6.670;2022-08-19T13:53:57;7.60;;;6.80;;
2940;SDS011;1480;51.456;6.670;2022-08-19T13:56:25;12.27;;;7.90;;
2940;SDS011;1480;51.456;6.670;2022-08-19T13:58:52;9.77;;;7.93;;
2940;SDS011;1480;51.456;6.670;2022-08-19T14:01:20;9.47;;;6.77;;
2940;SDS011;1480;51.456;6.670;2022-08-19T14:03:47;8.47;;;6.20;;
2940;SDS011;1480;51.456;6.670;2022-08-19T14:06:14;8.33;;;6.50;;
2940;SDS011;1480;51.456;6.670;2022-08-19T14:08:42;5.73;;;5.20;;
2940;SDS011;1480;51.456;6.670;2022-08-19T14:11:09;10.10;;;7.70;;
2940;SDS011;1480;51.456;6.670;2022-08-19T14:13:38;11.53;;;5.70;;
2940;SDS011;1480;51.456;6.670;2022-08-19T14:16:08;11.33;;;5.40;;
2940;SDS011;1480;51.456;6.670;2022-08-19T14:18:35;10.27;;;5.83;;
2940;SDS011;1480;51.456;6.670;2022-08-19T14:21:03;7.03;;;4.90;;
2940;SDS011;1480;51.456;6.670;2022-08-19T14:23:31;7.37;;;4.10;;
2940;SDS011;1480;51.456;6.670;2022-08-19T14:26:04;12.00;;;4.70;;
2940;SDS011;1480;51.456;6.670;2022-08-19T14:28:33;4.90;;;4.40;;
2940;SDS011;1480;51.456;6.670;2022-08-19T14:31:01;5.90;;;5.27;;
2940;SDS011;1480;51.456;6.670;2022-08-19T14:33:28;5.23;;;4.10;;
2940;SDS011;1480;51.456;6.670;2022-08-19T14:35:55;6.00;;;4.60;;
2940;SDS011;1480;51.456;6.670;2022-08-19T14:38:22;4.60;;;3.73;;
2940;SDS011;1480;51.456;6.670;2022-08-19T14:40:49;6.60;;;3.17;;
2940;SDS011;1480;51.456;6.670;2022-08-19T14:43:17;5.37;;;3.77;;
2940;SDS011;1480;51.456;6.670;2022-08-19T14:45:44;5.67;;;5.03;;
2940;SDS011;1480;51.456;6.670;2022-08-19T14:48:13;5.23;;;4.40;;
2940;SDS011;1480;51.456;6.670;2022-08-19T14:50:40;6.50;;;5.30;;
2940;SDS011;1480;51.456;6.670;2022-08-19T14:53:07;10.07;;;6.90;;
2940;SDS011;1480;51.456;6.670;2022-08-19T14:55:34;168.20;;;36.67;;
2940;SDS011;1480;51.456;6.670;2022-08-19T14:58:02;17.60;;;8.23;;
2940;SDS011;1480;51.456;6.670;2022-08-19T15:00:29;54.63;;;14.63;;
2940;SDS011;1480;51.456;6.670;2022-08-19T15:02:56;18.10;;;8.73;;
2940;SDS011;1480;51.456;6.670;2022-08-19T15:05:25;9.97;;;6.47;;
2940;SDS011;1480;51.456;6.670;2022-08-19T15:07:52;13.80;;;6.97;;